createdAt,value
2023-05-08T00:00:05.496Z,101939.88
2023-05-08T00:05:27.294Z,101933.50
2023-05-08T00:10:49.262Z,101938.44
2023-05-08T00:16:12.037Z,101945.06
2023-05-08T00:21:34.131Z,101945.06
2023-05-08T00:26:56.117Z,101947.22
2023-05-08T00:32:17.986Z,101942.75
2023-05-08T00:37:41.419Z,101930.19
2023-05-08T00:43:03.283Z,101930.19
2023-05-08T00:48:25.757Z,101947.09
2023-05-08T00:53:47.798Z,101947.09
2023-05-08T00:59:11.666Z,101952.88
2023-05-08T01:04:35.098Z,101957.59
2023-05-08T01:09:56.983Z,101944.78
2023-05-08T01:15:31.922Z,101952.03
2023-05-08T01:20:59.848Z,101958.91
2023-05-08T01:26:45.844Z,101935.84
2023-05-08T01:32:30.286Z,101943.56
2023-05-08T01:38:07.010Z,101952.13
2023-05-08T01:43:40.933Z,101954.06
2023-05-08T01:49:09.862Z,101956.00
2023-05-08T01:54:39.417Z,101955.13
2023-05-08T02:00:04.314Z,101956.25
2023-05-08T02:05:28.728Z,101962.00
2023-05-08T02:10:52.093Z,101962.88
2023-05-08T02:16:15.358Z,101962.00
2023-05-08T02:21:39.315Z,101961.19
2023-05-08T02:27:01.875Z,101959.47
2023-05-08T02:32:26.536Z,101970.59
2023-05-08T02:37:56.225Z,101965.03
2023-05-08T02:43:18.108Z,101967.19
2023-05-08T02:49:53.718Z,101964.88
2023-05-08T02:55:21.214Z,101968.53
2023-05-08T03:00:51.385Z,101967.66
2023-05-08T03:06:17.290Z,101963.16
2023-05-08T03:11:45.182Z,101963.16
2023-05-08T03:17:09.407Z,101957.00
2023-05-08T03:22:34.918Z,101969.81
2023-05-08T03:27:57.455Z,101963.88
2023-05-08T03:33:22.052Z,101960.00
2023-05-08T03:38:44.364Z,101961.09
2023-05-08T03:44:07.946Z,101965.81
2023-05-08T03:49:30.697Z,101968.59
2023-05-08T03:54:52.680Z,101958.78
2023-05-08T04:00:45.859Z,101952.75
2023-05-08T04:06:14.654Z,101946.38
2023-05-08T04:11:53.983Z,101938.25
2023-05-08T04:17:22.819Z,101949.59
2023-05-08T04:22:46.511Z,101947.91
2023-05-08T04:28:09.336Z,101956.25
2023-05-08T04:33:31.473Z,101967.34
2023-05-08T04:38:53.444Z,101963.75
2023-05-08T04:44:15.264Z,101968.69
2023-05-08T04:49:37.138Z,101969.50
2023-05-08T04:54:58.905Z,101971.66
2023-05-08T05:00:21.021Z,101991.13
2023-05-08T05:05:42.880Z,101997.75
2023-05-08T05:11:04.690Z,102001.41
2023-05-08T05:16:27.660Z,102000.31
2023-05-08T05:21:49.646Z,102004.16
2023-05-08T05:27:11.457Z,102024.47
2023-05-08T05:32:33.344Z,102026.03
2023-05-08T05:37:55.339Z,102029.88
2023-05-08T05:43:17.150Z,102036.06
2023-05-08T05:48:39.061Z,102048.25
2023-05-08T05:54:00.953Z,102043.53
2023-05-08T05:59:22.833Z,102058.50
2023-05-08T06:04:44.576Z,102053.81
2023-05-08T06:10:07.092Z,102065.75
2023-05-08T06:15:29.096Z,102065.75
2023-05-08T06:20:58.568Z,102065.75
2023-05-08T06:26:23.327Z,102064.06
2023-05-08T06:31:45.460Z,102059.34
2023-05-08T06:37:07.288Z,102074.94
2023-05-08T06:42:29.218Z,102068.53
2023-05-08T06:47:51.277Z,102072.19
2023-05-08T06:53:13.343Z,102073.25
2023-05-08T06:58:36.015Z,102069.59
2023-05-08T07:03:57.963Z,102076.03
2023-05-08T07:09:19.762Z,102074.94
2023-05-08T07:14:41.640Z,102086.91
2023-05-08T07:20:04.128Z,102077.72
2023-05-08T07:25:25.995Z,102073.00
2023-05-08T07:30:47.979Z,102075.53
2023-05-08T07:36:09.856Z,102073.19
2023-05-08T07:41:33.130Z,102072.50
2023-05-08T07:46:54.994Z,102068.16
2023-05-08T07:52:16.973Z,102072.19
2023-05-08T07:57:41.848Z,102065.72
2023-05-08T08:03:03.937Z,102070.09
2023-05-08T08:08:25.909Z,102069.56
2023-05-08T08:13:47.896Z,102077.13
2023-05-08T08:19:10.989Z,102067.41
2023-05-08T08:24:32.977Z,102076.53
2023-05-08T08:30:08.259Z,102076.44
2023-05-08T08:35:36.546Z,102075.91
2023-05-08T08:40:59.224Z,102073.88
2023-05-08T08:46:25.638Z,102074.47
2023-05-08T08:51:52.908Z,102080.88
2023-05-08T08:57:15.685Z,102068.91
2023-05-08T09:02:37.835Z,102077.38
2023-05-08T09:08:00.140Z,102068.22
2023-05-08T09:13:22.575Z,102072.44
2023-05-08T09:18:44.795Z,102073.06
2023-05-08T09:24:06.953Z,102075.13
2023-05-08T09:29:28.719Z,102078.28
2023-05-08T09:34:53.940Z,102067.91
2023-05-08T09:40:18.931Z,102076.88
2023-05-08T09:45:41.754Z,102076.38
2023-05-08T09:51:07.379Z,102070.97
2023-05-08T09:56:39.942Z,102077.19
2023-05-08T10:02:11.056Z,102064.97
2023-05-08T10:07:38.973Z,102066.66
2023-05-08T10:13:00.816Z,102070.03
2023-05-08T10:18:29.140Z,102080.59
2023-05-08T10:23:52.799Z,102079.31
2023-05-08T10:29:21.194Z,102075.91
2023-05-08T10:34:46.988Z,102072.75
2023-05-08T10:40:10.171Z,102068.13
2023-05-08T10:45:33.129Z,102067.75
2023-05-08T10:51:28.233Z,102057.97
2023-05-08T10:56:50.059Z,102056.34
2023-05-08T11:02:11.986Z,102064.97
2023-05-08T11:07:59.556Z,102056.00
2023-05-08T11:13:29.167Z,102045.06
2023-05-08T11:19:20.401Z,102044.50
2023-05-08T11:25:05.447Z,102045.56
2023-05-08T11:30:33.137Z,102044.97
2023-05-08T11:36:19.424Z,102041.56
2023-05-08T11:41:41.743Z,102046.50
2023-05-08T11:47:03.889Z,102027.88
2023-05-08T11:52:25.783Z,102024.84
2023-05-08T11:57:47.593Z,102024.84
2023-05-08T12:03:13.557Z,102018.22
2023-05-08T12:08:39.372Z,102009.88
2023-05-08T12:14:01.329Z,102009.88
2023-05-08T12:19:23.187Z,102009.03
2023-05-08T12:24:45.149Z,102005.13
2023-05-08T12:30:09.870Z,101995.94
2023-05-08T12:35:33.061Z,101990.13
2023-05-08T12:40:58.526Z,101990.13
2023-05-08T12:46:22.466Z,101985.91
2023-05-08T12:51:46.610Z,101982.03
2023-05-08T12:57:12.979Z,101980.34
2023-05-08T13:02:39.330Z,101973.06
2023-05-08T13:08:11.485Z,101978.63
2023-05-08T13:13:36.576Z,101980.34
2023-05-08T13:18:58.408Z,101975.84
2023-05-08T13:24:20.292Z,101963.66
2023-05-08T13:29:42.287Z,101961.72
2023-05-08T13:35:04.530Z,101955.91
2023-05-08T13:40:26.690Z,101958.09
2023-05-08T13:45:51.638Z,101958.94
2023-05-08T13:51:13.574Z,101956.38
2023-05-08T13:56:35.660Z,101945.25
2023-05-08T14:01:57.490Z,101943.56
2023-05-08T14:07:19.585Z,101931.34
2023-05-08T14:12:41.460Z,101922.16
2023-05-08T14:18:03.302Z,101928.56
2023-05-08T14:23:25.172Z,101934.13
2023-05-08T14:28:47.025Z,101926.88
2023-05-08T14:34:08.852Z,101930.50
2023-05-08T14:39:30.648Z,101938.84
2023-05-08T14:44:52.546Z,101931.34
2023-05-08T14:50:14.386Z,101941.63
2023-05-08T14:55:36.868Z,101933.28
2023-05-08T15:00:59.038Z,101934.13
2023-05-08T15:06:22.336Z,101929.44
2023-05-08T15:11:44.663Z,101927.47
2023-05-08T15:17:06.455Z,101931.97
2023-05-08T15:22:28.429Z,101924.69
2023-05-08T15:27:52.974Z,101927.72
2023-05-08T15:33:15.015Z,101930.25
2023-05-08T15:38:36.847Z,101922.16
2023-05-08T15:43:58.736Z,101932.44
2023-05-08T15:49:25.937Z,101926.88
2023-05-08T15:54:48.255Z,101932.44
2023-05-08T16:00:10.847Z,101935.22
2023-05-08T16:05:32.637Z,101931.34
2023-05-08T16:10:54.724Z,101940.78
2023-05-08T16:16:16.657Z,101943.56
2023-05-08T16:21:38.677Z,101938.84
2023-05-08T16:27:00.613Z,101942.94
2023-05-08T16:32:22.386Z,101938.47
2023-05-08T16:37:44.307Z,101926.75
2023-05-08T16:43:06.122Z,101922.28
2023-05-08T16:48:29.170Z,101915.00
2023-05-08T16:53:51.023Z,101916.94
2023-05-08T16:59:12.833Z,101918.25
2023-05-08T17:04:34.659Z,101921.03
2023-05-08T17:09:59.189Z,101908.69
2023-05-08T17:15:21.207Z,101911.59
2023-05-08T17:20:43.150Z,101904.59
2023-05-08T17:26:05.021Z,101907.06
2023-05-08T17:31:27.988Z,101898.81
2023-05-08T17:36:50.288Z,101925.56
2023-05-08T17:42:12.096Z,101921.09
2023-05-08T17:47:33.998Z,101904.38
2023-05-08T17:52:55.873Z,101909.59
2023-05-08T17:58:17.614Z,101906.44
2023-05-08T18:03:39.479Z,101894.69
2023-05-08T18:09:01.329Z,101896.25
2023-05-08T18:14:23.078Z,101882.81
2023-05-08T18:19:47.625Z,101885.25
2023-05-08T18:25:09.587Z,101870.13
2023-05-08T18:30:31.840Z,101882.56
2023-05-08T18:35:53.669Z,101894.78
2023-05-08T18:41:15.578Z,101889.72
2023-05-08T18:46:37.506Z,101873.03
2023-05-08T18:51:59.567Z,101871.94
2023-05-08T18:57:21.385Z,101874.94
2023-05-08T19:02:43.295Z,101886.94
2023-05-08T19:08:05.307Z,101892.75
2023-05-08T19:13:27.324Z,101891.56
2023-05-08T19:18:49.272Z,101890.25
2023-05-08T19:24:11.107Z,101894.38
2023-05-08T19:29:35.276Z,101903.06
2023-05-08T19:34:57.784Z,101913.34
2023-05-08T19:40:19.672Z,101912.59
2023-05-08T19:45:41.724Z,101905.13
2023-05-08T19:51:07.639Z,101918.44
2023-05-08T19:56:29.455Z,101923.03
2023-05-08T20:01:51.316Z,101926.78
2023-05-08T20:07:13.126Z,101922.81
2023-05-08T20:12:34.980Z,101925.25
2023-05-08T20:17:56.899Z,101927.03
2023-05-08T20:23:18.856Z,101920.78
2023-05-08T20:28:40.933Z,101912.53
2023-05-08T20:34:02.683Z,101922.97
2023-05-08T20:39:24.489Z,101929.44
2023-05-08T20:44:46.317Z,101927.13
2023-05-08T20:50:08.577Z,101922.56
2023-05-08T20:55:30.448Z,101924.97
2023-05-08T21:00:52.325Z,101909.84
2023-05-08T21:06:14.151Z,101902.81
2023-05-08T21:11:36.314Z,101905.25
2023-05-08T21:16:58.147Z,101887.06
2023-05-08T21:22:20.152Z,101874.75
2023-05-08T21:27:45.069Z,101866.41
2023-05-08T21:33:07.030Z,101869.66
2023-05-08T21:38:29.016Z,101862.66
2023-05-08T21:43:50.945Z,101859.63
2023-05-08T21:49:13.046Z,101860.22
2023-05-08T21:54:34.836Z,101858.28
2023-05-08T21:59:56.888Z,101844.16
2023-05-08T22:05:19.780Z,101827.44
2023-05-08T22:10:44.379Z,101818.59
2023-05-08T22:16:06.832Z,101816.41
2023-05-08T22:21:30.275Z,101806.38
2023-05-08T22:26:52.085Z,101801.31
2023-05-08T22:32:14.436Z,101797.94
2023-05-08T22:37:36.956Z,101780.00
2023-05-08T22:42:59.411Z,101776.63
2023-05-08T22:48:21.755Z,101773.47
2023-05-08T22:53:43.613Z,101763.69
2023-05-08T22:59:06.143Z,101751.97
2023-05-08T23:04:28.015Z,101759.69
2023-05-08T23:09:49.859Z,101747.13
2023-05-08T23:15:12.760Z,101741.78
2023-05-08T23:20:34.720Z,101736.72
2023-05-08T23:26:01.160Z,101735.03
2023-05-08T23:31:23.138Z,101728.88
2023-05-08T23:36:44.993Z,101727.16
2023-05-08T23:42:07.794Z,101722.69
2023-05-08T23:47:29.595Z,101713.75
2023-05-08T23:52:51.472Z,101717.59
2023-05-08T23:58:13.223Z,101708.66
